Time;durP1;ratioP1;P1;durP2;ratioP2;P2;SDS_P1;SDS_P2;PMS_P1;PMS_P2;Temp;Humidity;BMP_temperature;BMP_pressure;BME280_temperature;BME280_humidity;BME280_pressure;Samples;Min_cycle;Max_cycle;Signal;HPM_P1;HPM_P2
2021/06/29 00:02:07;;;;;;;19.60;6.97;;;17.60;99.90;;;;;;5035669;28;20351;-70
2021/06/29 00:04:32;;;;;;;14.10;7.07;;;17.60;99.90;;;;;;5035297;28;20045;-70
2021/06/29 00:06:58;;;;;;;19.60;7.40;;;17.60;99.90;;;;;;5035163;28;20116;-70
2021/06/29 00:09:24;;;;;;;13.65;7.07;;;17.70;99.90;;;;;;5035080;28;20038;-70
2021/06/29 00:11:50;;;;;;;19.15;7.60;;;17.80;99.90;;;;;;5035451;28;20042;-70
2021/06/29 00:14:15;;;;;;;16.30;7.80;;;17.80;99.90;;;;;;5035563;28;20044;-70
2021/06/29 00:16:41;;;;;;;22.45;8.52;;;17.80;99.90;;;;;;5035171;28;20512;-70
2021/06/29 00:19:07;;;;;;;19.38;7.10;;;17.90;99.90;;;;;;5034714;28;20043;-70
2021/06/29 00:21:33;;;;;;;16.33;7.38;;;17.80;99.90;;;;;;5034850;28;20095;-70
2021/06/29 00:23:58;;;;;;;21.75;7.55;;;17.80;99.90;;;;;;5034917;28;20060;-70
2021/06/29 00:26:24;;;;;;;17.83;7.72;;;17.80;99.90;;;;;;5035155;28;20041;-70
2021/06/29 00:28:50;;;;;;;17.48;7.45;;;17.70;99.90;;;;;;5034807;28;20069;-70
2021/06/29 00:31:16;;;;;;;20.42;7.97;;;17.70;99.90;;;;;;5034626;28;20063;-70
2021/06/29 00:33:42;;;;;;;22.17;7.53;;;17.50;99.90;;;;;;5034912;28;20072;-70
2021/06/29 00:36:10;;;;;;;23.50;7.15;;;17.60;99.90;;;;;;5034753;28;20041;-70
2021/06/29 00:38:36;;;;;;;18.52;8.05;;;17.50;99.90;;;;;;5034340;28;20044;-70
2021/06/29 00:41:02;;;;;;;22.60;7.53;;;17.50;99.90;;;;;;5034455;28;20426;-70
2021/06/29 00:43:28;;;;;;;15.77;6.47;;;17.50;99.90;;;;;;5034591;28;20049;-70
2021/06/29 00:45:53;;;;;;;16.02;7.80;;;17.50;99.90;;;;;;5033668;28;20037;-70
2021/06/29 00:48:19;;;;;;;15.43;6.88;;;17.50;99.90;;;;;;5034663;28;20073;-70
2021/06/29 00:50:45;;;;;;;19.30;6.88;;;17.60;99.90;;;;;;5034059;28;20041;-70
2021/06/29 00:53:12;;;;;;;21.83;8.43;;;17.70;99.90;;;;;;5034530;28;20367;-70
2021/06/29 00:55:39;;;;;;;15.52;6.78;;;17.80;99.90;;;;;;5033703;28;20045;-70
2021/06/29 00:58:09;;;;;;;13.00;6.47;;;17.80;99.90;;;;;;5034280;28;20068;-70
2021/06/29 01:00:36;;;;;;;19.90;7.72;;;17.90;99.90;;;;;;5034008;28;20042;-70
2021/06/29 01:03:03;;;;;;;18.80;7.43;;;17.90;99.90;;;;;;5034290;28;20116;-70
2021/06/29 01:05:29;;;;;;;19.75;6.82;;;17.80;99.90;;;;;;5034369;28;20061;-70
2021/06/29 01:07:54;;;;;;;15.82;6.13;;;17.80;99.90;;;;;;5034286;28;20068;-70
2021/06/29 01:10:21;;;;;;;20.63;7.22;;;17.80;99.90;;;;;;5033866;28;20038;-70
2021/06/29 01:12:48;;;;;;;20.75;6.75;;;17.80;99.90;;;;;;5034505;28;20041;-70
2021/06/29 01:15:22;;;;;;;25.33;6.82;;;17.80;99.90;;;;;;5034192;28;20034;-70
2021/06/29 01:17:53;;;;;;;19.95;7.10;;;17.80;99.90;;;;;;5033992;28;20086;-70
2021/06/29 01:20:26;;;;;;;20.83;6.65;;;17.80;99.90;;;;;;5033566;28;20041;-70
2021/06/29 01:22:56;;;;;;;14.05;5.35;;;17.80;99.90;;;;;;5034236;28;20041;-70
2021/06/29 01:25:25;;;;;;;15.40;5.80;;;17.80;99.90;;;;;;5034517;28;20034;-70
2021/06/29 01:28:07;;;;;;;18.02;7.18;;;17.70;99.90;;;;;;5034001;28;20044;-70
2021/06/29 01:33:19;;;;;;;24.05;8.90;;;17.70;99.90;;;;;;5033734;28;20504;-70
2021/06/29 01:35:45;;;;;;;19.13;8.23;;;17.60;99.90;;;;;;5033882;28;20118;-70
2021/06/29 01:38:16;;;;;;;19.02;7.80;;;17.70;99.90;;;;;;5033864;28;20038;-70
2021/06/29 01:40:42;;;;;;;25.17;7.40;;;17.70;99.90;;;;;;5033131;28;20052;-70
2021/06/29 01:43:08;;;;;;;18.08;7.28;;;17.60;99.90;;;;;;5033570;28;20037;-70
2021/06/29 01:45:34;;;;;;;25.23;7.88;;;17.60;99.90;;;;;;5033804;28;20071;-70
2021/06/29 01:48:02;;;;;;;23.52;8.50;;;17.60;99.90;;;;;;5033717;28;20485;-70
2021/06/29 01:50:29;;;;;;;16.10;7.38;;;17.60;99.90;;;;;;5033297;28;20053;-70
2021/06/29 01:52:57;;;;;;;16.88;7.07;;;17.50;99.90;;;;;;5034092;28;20076;-70
2021/06/29 01:55:24;;;;;;;20.33;7.65;;;17.50;99.90;;;;;;5034008;28;20060;-70
2021/06/29 01:57:50;;;;;;;16.48;7.90;;;17.50;99.90;;;;;;5033707;28;20048;-70
2021/06/29 02:00:17;;;;;;;21.45;7.22;;;17.50;99.90;;;;;;5032977;28;20478;-70
2021/06/29 02:02:43;;;;;;;23.98;6.70;;;17.50;99.90;;;;;;5033575;28;20038;-70
2021/06/29 02:05:09;;;;;;;19.38;7.70;;;17.50;99.90;;;;;;5033331;28;20057;-70
2021/06/29 02:07:35;;;;;;;23.13;7.20;;;17.50;99.90;;;;;;5033160;28;20037;-70
2021/06/29 02:10:01;;;;;;;17.23;7.13;;;17.40;99.90;;;;;;5032932;28;20418;-70
2021/06/29 02:12:27;;;;;;;20.15;7.78;;;17.30;99.90;;;;;;5033289;28;20068;-70
2021/06/29 02:14:52;;;;;;;16.92;7.70;;;17.40;99.90;;;;;;5033241;28;20100;-70
2021/06/29 02:17:18;;;;;;;24.98;7.38;;;17.40;99.90;;;;;;5033659;28;20175;-70
2021/06/29 02:19:44;;;;;;;16.02;6.60;;;17.30;99.90;;;;;;5032855;28;20045;-70
2021/06/29 02:22:09;;;;;;;17.77;6.60;;;17.30;99.90;;;;;;5032891;28;20128;-70
2021/06/29 02:24:35;;;;;;;15.95;6.78;;;17.40;99.90;;;;;;5033722;28;20051;-70
2021/06/29 02:27:01;;;;;;;19.85;7.72;;;17.30;99.90;;;;;;5033069;28;20041;-70
2021/06/29 02:29:27;;;;;;;18.33;6.95;;;17.30;99.90;;;;;;5033079;28;20033;-70
2021/06/29 02:31:52;;;;;;;21.92;6.95;;;17.40;99.90;;;;;;5033075;28;20528;-70
2021/06/29 02:34:18;;;;;;;17.70;7.13;;;17.30;99.90;;;;;;5031933;28;20120;-70
2021/06/29 02:36:44;;;;;;;21.98;8.27;;;17.30;99.90;;;;;;5032965;28;20041;-70
2021/06/29 02:39:09;;;;;;;19.85;6.90;;;17.30;99.90;;;;;;5032603;28;20041;-70
2021/06/29 02:41:36;;;;;;;14.93;6.07;;;17.30;99.90;;;;;;5032926;28;20128;-70
2021/06/29 02:44:01;;;;;;;21.40;8.65;;;17.30;99.90;;;;;;5033195;28;20076;-69
2021/06/29 02:46:27;;;;;;;16.60;6.15;;;17.30;99.90;;;;;;5031994;28;20061;-70
2021/06/29 02:48:55;;;;;;;18.08;6.60;;;17.30;99.90;;;;;;5032858;28;20045;-70
2021/06/29 02:51:22;;;;;;;19.70;7.43;;;17.40;99.90;;;;;;5032771;28;20038;-70
2021/06/29 02:53:48;;;;;;;27.30;9.18;;;17.30;99.90;;;;;;5033039;28;20096;-70
2021/06/29 02:58:58;;;;;;;19.05;7.03;;;17.40;99.90;;;;;;5032778;28;20185;-70
2021/06/29 03:01:23;;;;;;;18.27;6.95;;;17.40;99.90;;;;;;5032716;28;20108;-70
2021/06/29 03:03:49;;;;;;;26.17;7.97;;;17.40;99.90;;;;;;5032793;28;20478;-70
2021/06/29 03:06:15;;;;;;;18.98;7.63;;;17.40;99.90;;;;;;5032972;28;20034;-70
2021/06/29 03:08:41;;;;;;;25.00;8.05;;;17.50;99.90;;;;;;5032456;28;20125;-70
2021/06/29 03:11:07;;;;;;;27.67;9.43;;;17.50;99.90;;;;;;5032622;28;20060;-70
2021/06/29 03:13:32;;;;;;;23.92;8.85;;;17.50;99.90;;;;;;5032914;28;20041;-70
2021/06/29 03:15:58;;;;;;;26.60;8.82;;;17.60;99.90;;;;;;5032490;28;20072;-70
2021/06/29 03:18:24;;;;;;;24.98;9.65;;;17.60;99.90;;;;;;5031883;28;20130;-70
2021/06/29 03:20:50;;;;;;;32.67;10.57;;;17.60;99.90;;;;;;5035833;28;20045;-70
2021/06/29 03:23:16;;;;;;;29.48;10.65;;;17.70;99.90;;;;;;5036506;28;20041;-70
2021/06/29 03:25:42;;;;;;;26.15;9.57;;;17.60;99.90;;;;;;5036466;28;20539;-70
2021/06/29 03:28:08;;;;;;;28.23;10.07;;;17.70;99.90;;;;;;5036026;28;20041;-70
2021/06/29 03:30:35;;;;;;;23.85;9.07;;;17.70;99.90;;;;;;5035697;28;20095;-70
2021/06/29 03:33:00;;;;;;;26.50;8.68;;;17.70;99.90;;;;;;5035761;28;20382;-70
2021/06/29 03:35:26;;;;;;;28.63;10.15;;;17.80;99.90;;;;;;5035927;28;20697;-70
2021/06/29 03:37:52;;;;;;;25.55;9.90;;;17.80;99.90;;;;;;5035954;28;20041;-70
2021/06/29 03:40:18;;;;;;;42.42;11.77;;;17.80;99.90;;;;;;5035635;28;20049;-70
2021/06/29 03:42:45;;;;;;;33.95;11.18;;;17.80;99.90;;;;;;5035849;28;20485;-70
2021/06/29 03:45:11;;;;;;;23.45;10.73;;;17.80;99.90;;;;;;5036382;28;20042;-70
2021/06/29 03:47:36;;;;;;;35.10;10.82;;;17.80;99.90;;;;;;5036231;28;20103;-70
2021/06/29 03:50:03;;;;;;;28.58;10.55;;;17.80;99.90;;;;;;5035418;28;20080;-70
2021/06/29 03:52:29;;;;;;;24.65;9.90;;;17.90;99.90;;;;;;5035731;28;20042;-70
2021/06/29 03:54:55;;;;;;;31.80;10.45;;;17.90;99.90;;;;;;5034630;28;20107;-70
2021/06/29 03:57:21;;;;;;;31.95;9.45;;;17.90;99.90;;;;;;5035522;28;20492;-70
2021/06/29 03:59:46;;;;;;;28.67;9.52;;;17.90;99.90;;;;;;5035172;28;20065;-70
2021/06/29 04:02:12;;;;;;;31.58;9.55;;;17.90;99.90;;;;;;5035607;28;20078;-70
2021/06/29 04:04:38;;;;;;;24.63;10.40;;;18.00;99.90;;;;;;5035392;28;20077;-70
2021/06/29 04:07:06;;;;;;;33.05;10.77;;;18.00;99.90;;;;;;5034351;28;20041;-70
2021/06/29 04:09:32;;;;;;;27.25;10.15;;;17.90;99.90;;;;;;5034959;28;20038;-70
2021/06/29 04:11:59;;;;;;;36.58;11.65;;;18.00;99.90;;;;;;5035544;28;20489;-70
2021/06/29 04:14:24;;;;;;;27.42;10.07;;;18.00;99.90;;;;;;5035554;28;20037;-70
2021/06/29 04:16:51;;;;;;;31.77;11.02;;;18.00;99.90;;;;;;5035467;28;20042;-70
2021/06/29 04:19:16;;;;;;;30.45;10.75;;;18.00;99.90;;;;;;5034893;28;20040;-70
2021/06/29 04:21:43;;;;;;;31.42;10.45;;;18.00;99.90;;;;;;5034955;28;20041;-70
2021/06/29 04:24:08;;;;;;;29.58;10.52;;;18.00;99.90;;;;;;5035274;28;20041;-70
2021/06/29 04:26:35;;;;;;;20.30;9.90;;;18.10;99.90;;;;;;5033697;28;20454;-70
2021/06/29 04:29:01;;;;;;;25.00;9.68;;;18.00;99.90;;;;;;5034712;28;20043;-70
2021/06/29 04:31:29;;;;;;;29.85;10.38;;;18.00;99.90;;;;;;5033580;28;20041;-70
2021/06/29 04:33:55;;;;;;;22.15;10.23;;;18.00;99.90;;;;;;5034849;28;20544;-70
2021/06/29 04:36:21;;;;;;;29.25;11.73;;;18.00;99.90;;;;;;5034857;28;20452;-70
2021/06/29 04:38:47;;;;;;;26.58;9.68;;;18.00;99.90;;;;;;5034278;28;20052;-70
2021/06/29 04:41:13;;;;;;;32.75;10.73;;;18.10;99.90;;;;;;5034738;28;20470;-70
2021/06/29 04:43:43;;;;;;;31.13;9.70;;;18.00;99.90;;;;;;5034830;28;20038;-70
2021/06/29 04:46:08;;;;;;;23.13;8.45;;;18.00;99.90;;;;;;5034341;28;20108;-70
2021/06/29 04:48:39;;;;;;;27.60;10.13;;;18.00;99.90;;;;;;5034167;28;20088;-70
2021/06/29 04:51:05;;;;;;;26.23;9.65;;;18.10;99.90;;;;;;5034406;28;20409;-70
2021/06/29 04:53:32;;;;;;;25.00;9.80;;;18.10;99.90;;;;;;5034173;28;20037;-70
2021/06/29 04:55:58;;;;;;;27.15;9.38;;;18.00;99.90;;;;;;5034091;28;20033;-70
2021/06/29 04:58:24;;;;;;;21.83;9.73;;;18.10;99.90;;;;;;5033179;28;20037;-70
2021/06/29 05:00:54;;;;;;;30.55;10.45;;;18.10;99.90;;;;;;5034609;28;20037;-70
2021/06/29 05:03:19;;;;;;;22.30;10.68;;;18.10;99.90;;;;;;5034638;28;20088;-70
2021/06/29 05:05:45;;;;;;;26.88;10.05;;;18.10;99.90;;;;;;5034207;28;20091;-70
2021/06/29 05:08:11;;;;;;;24.90;10.00;;;18.10;99.90;;;;;;5034306;28;20116;-71
2021/06/29 05:10:37;;;;;;;20.27;10.07;;;18.10;99.90;;;;;;5033864;28;20041;-70
2021/06/29 05:13:03;;;;;;;20.88;8.77;;;18.10;99.90;;;;;;5032868;28;20427;-70
2021/06/29 05:15:29;;;;;;;28.77;9.45;;;18.10;99.90;;;;;;5034092;28;20080;-71
2021/06/29 05:17:55;;;;;;;22.83;9.60;;;18.10;99.90;;;;;;5034120;28;20454;-70
2021/06/29 05:20:21;;;;;;;20.52;8.98;;;18.10;99.90;;;;;;5033501;28;20041;-70
2021/06/29 05:22:47;;;;;;;22.00;8.80;;;18.20;99.90;;;;;;5033901;28;20045;-69
2021/06/29 05:25:13;;;;;;;30.20;9.13;;;18.20;99.90;;;;;;5034042;28;20034;-70
2021/06/29 05:27:40;;;;;;;28.10;9.80;;;18.10;99.90;;;;;;5033747;28;20045;-70
2021/06/29 05:30:08;;;;;;;29.50;9.35;;;18.10;99.90;;;;;;5033358;28;20042;-71
2021/06/29 05:32:34;;;;;;;24.80;8.95;;;18.20;99.90;;;;;;5033627;28;20045;-69
2021/06/29 05:35:00;;;;;;;29.23;9.63;;;18.10;99.90;;;;;;5033945;28;20065;-68
2021/06/29 05:37:25;;;;;;;20.25;8.73;;;18.10;99.90;;;;;;5033810;28;20555;-69
2021/06/29 05:39:51;;;;;;;29.75;10.13;;;18.20;99.90;;;;;;5033401;28;20444;-69
2021/06/29 05:42:17;;;;;;;25.95;9.48;;;18.20;99.90;;;;;;5033115;28;20045;-68
2021/06/29 05:44:43;;;;;;;23.35;8.88;;;18.30;99.90;;;;;;5033680;28;20044;-68
2021/06/29 05:47:09;;;;;;;24.63;8.75;;;18.30;99.90;;;;;;5032686;28;20455;-69
2021/06/29 05:49:36;;;;;;;18.77;8.48;;;18.30;99.90;;;;;;5033733;28;20071;-69
2021/06/29 05:52:03;;;;;;;22.25;9.55;;;18.40;99.90;;;;;;5033344;28;20116;-68
2021/06/29 05:54:29;;;;;;;26.38;9.77;;;18.40;99.90;;;;;;5033927;28;20060;-68
2021/06/29 05:56:55;;;;;;;23.77;9.07;;;18.40;99.90;;;;;;5033547;28;20460;-68
2021/06/29 05:59:21;;;;;;;32.03;10.77;;;18.40;99.90;;;;;;5033203;28;20087;-69
2021/06/29 06:01:46;;;;;;;19.40;9.07;;;18.40;99.90;;;;;;5033196;28;20040;-68
2021/06/29 06:04:12;;;;;;;23.88;8.90;;;18.40;99.90;;;;;;5033280;28;20120;-68
2021/06/29 06:06:38;;;;;;;35.70;10.18;;;18.50;99.90;;;;;;5033301;28;20485;-70
2021/06/29 06:09:04;;;;;;;30.20;10.02;;;18.40;99.90;;;;;;5032959;28;20045;-71
2021/06/29 06:11:30;;;;;;;29.00;10.95;;;18.50;99.90;;;;;;5033244;28;20041;-71
2021/06/29 06:13:55;;;;;;;33.10;9.88;;;18.50;99.90;;;;;;5033437;28;20045;-69
2021/06/29 06:16:21;;;;;;;29.65;10.85;;;18.60;99.90;;;;;;5033519;28;20405;-69
2021/06/29 06:18:47;;;;;;;26.70;10.65;;;18.60;99.90;;;;;;5032999;28;20113;-70
2021/06/29 06:21:13;;;;;;;32.08;10.38;;;18.60;99.90;;;;;;5032983;28;20478;-70
2021/06/29 06:23:41;;;;;;;29.02;9.63;;;18.60;99.90;;;;;;5033165;28;20063;-70
2021/06/29 06:26:07;;;;;;;37.28;10.70;;;18.60;99.90;;;;;;5033266;28;20477;-69
2021/06/29 06:28:33;;;;;;;29.38;11.43;;;18.60;99.90;;;;;;5032553;28;20041;-70
2021/06/29 06:30:59;;;;;;;36.45;11.57;;;18.60;99.90;;;;;;5032931;28;20120;-70
2021/06/29 06:33:25;;;;;;;27.65;11.25;;;18.70;99.90;;;;;;5033351;28;20044;-70
2021/06/29 06:35:51;;;;;;;34.65;12.10;;;18.70;99.90;;;;;;5033124;28;20041;-70
2021/06/29 06:38:16;;;;;;;33.00;11.88;;;18.70;99.90;;;;;;5033522;28;20466;-70
2021/06/29 06:40:42;;;;;;;45.65;14.40;;;18.80;99.90;;;;;;5032475;28;20041;-70
2021/06/29 06:43:08;;;;;;;34.20;12.23;;;18.80;99.90;;;;;;5032960;28;20052;-70
2021/06/29 06:45:34;;;;;;;33.03;12.77;;;18.90;99.90;;;;;;5033163;28;20049;-70
2021/06/29 06:48:01;;;;;;;34.22;13.25;;;18.90;99.90;;;;;;5033306;28;20042;-70
2021/06/29 06:50:27;;;;;;;33.88;13.82;;;19.00;99.90;;;;;;5032908;28;20053;-69
2021/06/29 06:52:52;;;;;;;30.48;12.45;;;19.10;99.90;;;;;;5032962;28;20037;-69
2021/06/29 06:55:24;;;;;;;28.30;11.43;;;19.10;99.90;;;;;;5035704;28;20034;-69
2021/06/29 06:57:50;;;;;;;27.15;10.32;;;19.20;99.90;;;;;;5036610;28;20053;-69
2021/06/29 07:00:16;;;;;;;32.60;11.57;;;19.30;99.90;;;;;;5036154;28;20046;-69
2021/06/29 07:02:42;;;;;;;33.97;12.95;;;19.30;99.90;;;;;;5036717;28;20060;-69
2021/06/29 07:05:08;;;;;;;26.58;12.52;;;19.20;99.90;;;;;;5036624;28;20405;-69
2021/06/29 07:07:35;;;;;;;29.77;13.43;;;19.30;99.90;;;;;;5036398;28;20053;-69
2021/06/29 07:10:01;;;;;;;28.17;12.07;;;19.40;99.90;;;;;;5036031;28;20461;-69
2021/06/29 07:12:27;;;;;;;27.67;11.25;;;19.40;99.90;;;;;;5036674;28;20037;-69
2021/06/29 07:14:53;;;;;;;32.03;12.85;;;19.40;99.90;;;;;;5036290;28;20458;-69
2021/06/29 07:17:18;;;;;;;32.78;11.52;;;19.50;99.90;;;;;;5036836;28;20041;-69
2021/06/29 07:19:44;;;;;;;29.30;11.68;;;19.60;99.90;;;;;;5036036;28;20057;-69
2021/06/29 07:22:10;;;;;;;31.52;12.35;;;19.60;99.90;;;;;;5036186;28;20425;-69
2021/06/29 07:24:36;;;;;;;34.10;13.10;;;19.60;99.90;;;;;;5036250;28;20072;-69
2021/06/29 07:27:02;;;;;;;29.63;13.05;;;19.50;99.90;;;;;;5036252;28;20041;-69
2021/06/29 07:29:28;;;;;;;33.60;13.95;;;19.60;99.90;;;;;;5036077;28;20095;-69
2021/06/29 07:31:54;;;;;;;32.13;12.82;;;19.50;99.90;;;;;;5036097;28;20490;-69
2021/06/29 07:34:19;;;;;;;30.38;12.73;;;19.60;99.90;;;;;;5036389;28;20535;-69
2021/06/29 07:36:45;;;;;;;21.60;12.10;;;19.60;99.90;;;;;;5036318;28;20496;-69
2021/06/29 07:39:11;;;;;;;30.17;13.98;;;19.60;99.90;;;;;;5035520;28;20049;-69
2021/06/29 07:41:36;;;;;;;30.58;13.93;;;19.70;99.90;;;;;;5035868;28;20049;-69
2021/06/29 07:44:02;;;;;;;37.63;13.68;;;19.60;99.90;;;;;;5036023;28;20381;-69
2021/06/29 07:46:29;;;;;;;38.80;14.82;;;19.60;99.90;;;;;;5034830;28;20493;-69
2021/06/29 07:48:54;;;;;;;32.63;14.05;;;19.60;99.90;;;;;;5035366;28;20041;-69
2021/06/29 07:51:20;;;;;;;36.08;15.10;;;19.60;99.90;;;;;;5034222;28;20053;-69
2021/06/29 07:53:47;;;;;;;36.10;15.20;;;19.50;99.90;;;;;;5035601;28;20048;-69
2021/06/29 07:56:16;;;;;;;33.00;15.05;;;19.50;99.90;;;;;;5035821;28;20041;-69
2021/06/29 07:58:43;;;;;;;33.55;15.15;;;19.50;99.90;;;;;;5035194;28;20402;-70
2021/06/29 08:01:10;;;;;;;38.75;14.23;;;19.50;99.90;;;;;;5035278;28;20087;-69
2021/06/29 08:03:36;;;;;;;29.42;15.25;;;19.40;99.90;;;;;;5035370;28;20428;-69
2021/06/29 08:06:02;;;;;;;29.88;13.60;;;19.40;99.90;;;;;;5035772;28;20033;-69
2021/06/29 08:08:29;;;;;;;26.90;14.23;;;19.40;99.90;;;;;;5035194;28;20116;-70
2021/06/29 08:10:55;;;;;;;31.95;15.00;;;19.40;99.90;;;;;;5035448;28;20045;-69
2021/06/29 08:13:20;;;;;;;31.80;15.70;;;19.50;99.90;;;;;;5036016;28;20029;-69
2021/06/29 08:15:46;;;;;;;37.75;16.45;;;19.50;99.90;;;;;;5035360;28;20038;-69
2021/06/29 08:18:12;;;;;;;30.17;14.98;;;19.50;99.90;;;;;;5035325;28;20099;-68
2021/06/29 08:20:38;;;;;;;28.70;15.15;;;19.60;99.90;;;;;;5034753;28;20041;-67
2021/06/29 08:23:04;;;;;;;34.25;15.80;;;19.60;99.90;;;;;;5035449;28;20041;-67
2021/06/29 08:25:30;;;;;;;26.65;15.90;;;19.70;99.90;;;;;;5035352;28;20034;-67
2021/06/29 08:27:55;;;;;;;28.95;15.65;;;19.80;99.90;;;;;;5035424;28;20420;-67
2021/06/29 08:30:22;;;;;;;30.50;16.77;;;19.80;99.90;;;;;;5035236;28;20042;-67
2021/06/29 08:32:50;;;;;;;24.30;15.82;;;19.90;99.90;;;;;;5034934;28;20096;-67
2021/06/29 08:35:16;;;;;;;31.50;15.90;;;19.90;99.90;;;;;;5033937;28;20116;-67
2021/06/29 08:37:43;;;;;;;28.95;15.75;;;20.00;99.90;;;;;;5035008;28;20076;-67
2021/06/29 08:40:11;;;;;;;31.23;16.83;;;20.00;99.90;;;;;;5034358;28;20543;-67
2021/06/29 08:42:37;;;;;;;29.83;16.40;;;20.00;99.90;;;;;;5034910;28;20462;-68
2021/06/29 08:45:08;;;;;;;32.30;16.30;;;20.00;99.90;;;;;;5034846;28;20049;-68
2021/06/29 08:47:36;;;;;;;30.67;17.33;;;20.00;99.90;;;;;;5034574;28;20555;-68
2021/06/29 08:50:03;;;;;;;29.83;17.25;;;20.00;99.90;;;;;;5034232;28;20041;-69
2021/06/29 08:52:29;;;;;;;30.60;17.00;;;20.00;99.90;;;;;;5034648;28;20421;-69
2021/06/29 08:54:56;;;;;;;33.63;17.55;;;20.00;99.90;;;;;;5034847;28;20072;-68
2021/06/29 08:57:21;;;;;;;33.65;18.45;;;20.00;99.90;;;;;;5035210;28;20087;-68
2021/06/29 08:59:47;;;;;;;37.50;18.48;;;20.00;99.90;;;;;;5034093;28;20048;-69
2021/06/29 09:02:12;;;;;;;37.00;18.17;;;20.00;99.90;;;;;;5034436;28;20053;-69
2021/06/29 09:04:50;;;;;;;34.17;17.67;;;20.00;99.90;;;;;;5034179;28;20050;-69
2021/06/29 09:07:30;;;;;;;35.50;16.13;;;20.00;99.90;;;;;;5034409;28;20034;-69
2021/06/29 09:10:01;;;;;;;30.40;16.80;;;20.00;99.90;;;;;;5033900;28;20045;-69
2021/06/29 09:12:45;;;;;;;34.08;17.42;;;20.00;99.90;;;;;;5034553;28;20038;-69
2021/06/29 09:15:34;;;;;;;35.53;19.35;;;20.10;99.90;;;;;;5034059;28;20537;-69
2021/06/29 09:18:05;;;;;;;39.17;19.65;;;20.10;99.90;;;;;;5033477;28;20049;-69
2021/06/29 09:20:40;;;;;;;35.15;19.17;;;20.10;99.90;;;;;;5033480;28;20041;-69
2021/06/29 09:23:15;;;;;;;41.83;19.85;;;20.10;99.90;;;;;;5034544;28;20442;-69
2021/06/29 09:25:53;;;;;;;44.67;18.60;;;20.10;99.90;;;;;;5034150;28;20049;-70
2021/06/29 09:28:51;;;;;;;31.30;19.40;;;20.10;99.90;;;;;;5033980;28;20123;-67
2021/06/29 09:31:19;;;;;;;33.30;18.27;;;20.20;99.90;;;;;;5032516;28;20041;-67
2021/06/29 09:33:56;;;;;;;32.17;17.98;;;20.20;99.90;;;;;;5034110;28;20484;-67
2021/06/29 09:36:30;;;;;;;30.83;16.73;;;20.20;99.90;;;;;;5034176;28;20045;-67
2021/06/29 09:38:58;;;;;;;33.25;18.25;;;20.20;99.90;;;;;;5033425;28;20045;-67
2021/06/29 09:41:28;;;;;;;29.55;18.30;;;20.20;99.90;;;;;;5033906;28;20080;-67
2021/06/29 09:43:56;;;;;;;26.63;16.30;;;20.30;99.90;;;;;;5033704;28;20409;-67
2021/06/29 09:46:25;;;;;;;23.98;15.18;;;20.30;99.90;;;;;;5033790;28;20049;-67
2021/06/29 09:48:55;;;;;;;27.95;16.52;;;20.40;99.90;;;;;;5033365;28;20037;-67
2021/06/29 09:51:28;;;;;;;24.02;14.43;;;20.40;99.90;;;;;;5033379;28;20112;-67
2021/06/29 09:53:56;;;;;;;27.63;16.05;;;20.40;99.90;;;;;;5033838;28;20041;-67
2021/06/29 09:56:46;;;;;;;32.17;16.48;;;20.50;99.90;;;;;;5033421;28;20048;-67
2021/06/29 09:59:18;;;;;;;31.77;15.40;;;20.40;99.90;;;;;;5033107;28;20496;-67
2021/06/29 10:01:45;;;;;;;29.17;14.30;;;20.40;99.90;;;;;;5033371;28;20037;-67
2021/06/29 10:04:11;;;;;;;28.67;16.42;;;20.40;99.90;;;;;;5033500;28;20041;-67
2021/06/29 10:06:39;;;;;;;30.58;15.65;;;20.40;99.90;;;;;;5033334;28;20487;-67
2021/06/29 10:09:10;;;;;;;31.05;16.25;;;20.40;99.90;;;;;;5033361;28;20064;-70
2021/06/29 10:11:38;;;;;;;30.13;16.48;;;20.40;99.90;;;;;;5033369;28;20076;-70
2021/06/29 10:14:08;;;;;;;30.65;15.95;;;20.40;99.90;;;;;;5033208;28;20037;-70
2021/06/29 10:16:43;;;;;;;33.97;16.17;;;20.30;99.90;;;;;;5033563;28;20040;-70
2021/06/29 10:22:11;;;;;;;27.85;15.60;;;20.30;99.90;;;;;;5039575;28;20548;-70
2021/06/29 10:24:37;;;;;;;29.48;16.88;;;20.30;99.90;;;;;;5033125;28;20046;-70
2021/06/29 10:27:06;;;;;;;31.63;18.33;;;20.30;99.90;;;;;;5033288;28;20038;-70
2021/06/29 10:29:32;;;;;;;32.72;16.95;;;20.40;99.90;;;;;;5036035;28;20041;-70
2021/06/29 10:32:04;;;;;;;27.38;16.00;;;20.30;99.90;;;;;;5035767;28;20071;-69
2021/06/29 10:34:31;;;;;;;31.23;18.38;;;20.30;99.90;;;;;;5035390;28;20057;-70
2021/06/29 10:36:57;;;;;;;31.02;16.20;;;20.30;99.90;;;;;;5037318;28;20065;-70
2021/06/29 10:39:26;;;;;;;28.98;16.65;;;20.40;99.90;;;;;;5036655;28;20061;-70
2021/06/29 10:42:02;;;;;;;30.02;17.52;;;20.30;99.90;;;;;;5037058;28;20406;-70
2021/06/29 10:44:36;;;;;;;36.83;19.70;;;20.40;99.90;;;;;;5037100;28;20037;-70
2021/06/29 10:47:02;;;;;;;32.15;17.30;;;20.30;99.90;;;;;;5036947;28;20041;-70
2021/06/29 10:49:47;;;;;;;26.42;17.30;;;20.30;99.90;;;;;;5036383;28;20116;-70
2021/06/29 10:52:28;;;;;;;32.20;17.45;;;20.30;99.90;;;;;;5036704;28;20087;-70
2021/06/29 10:55:00;;;;;;;29.70;16.75;;;20.30;99.90;;;;;;5036321;28;20552;-70
2021/06/29 10:57:42;;;;;;;29.90;18.10;;;20.40;99.90;;;;;;5037080;28;20038;-69
2021/06/29 11:00:16;;;;;;;34.92;19.05;;;20.50;99.90;;;;;;5036091;28;20494;-69
2021/06/29 11:02:57;;;;;;;30.13;17.80;;;20.60;99.90;;;;;;5036393;28;20046;-69
2021/06/29 11:05:43;;;;;;;30.40;17.48;;;20.70;99.90;;;;;;5036744;28;20059;-69
2021/06/29 11:08:10;;;;;;;35.30;19.08;;;20.80;99.90;;;;;;5036757;28;20080;-68
2021/06/29 11:10:37;;;;;;;36.28;19.15;;;20.90;99.90;;;;;;5036137;28;20175;-69
2021/06/29 11:13:05;;;;;;;29.33;18.42;;;20.90;99.90;;;;;;5035327;28;20124;-68
2021/06/29 11:15:51;;;;;;;39.80;21.08;;;20.90;99.90;;;;;;5036379;28;20045;-69
2021/06/29 11:18:38;;;;;;;32.58;19.25;;;20.90;99.90;;;;;;5036402;28;20047;-69
2021/06/29 11:21:06;;;;;;;32.05;18.25;;;20.90;99.90;;;;;;5035429;28;20054;-68
2021/06/29 11:23:35;;;;;;;31.35;17.63;;;20.80;99.90;;;;;;5036373;28;20037;-68
2021/06/29 11:26:24;;;;;;;29.80;18.23;;;20.90;99.90;;;;;;5036805;28;20072;-68
2021/06/29 11:28:51;;;;;;;31.02;20.52;;;20.90;99.90;;;;;;5036027;28;20056;-68
2021/06/29 11:31:20;;;;;;;33.33;19.88;;;20.80;99.90;;;;;;5036045;28;20120;-68
2021/06/29 11:34:04;;;;;;;31.73;18.13;;;20.80;99.90;;;;;;5036284;28;20034;-68
2021/06/29 11:36:30;;;;;;;32.15;20.25;;;20.80;99.90;;;;;;5036002;28;20438;-69
2021/06/29 11:39:15;;;;;;;28.65;17.73;;;20.80;99.90;;;;;;5035610;28;20041;-69
2021/06/29 11:41:42;;;;;;;31.58;18.50;;;20.90;99.90;;;;;;5035183;28;20041;-69
2021/06/29 11:44:08;;;;;;;28.38;18.02;;;20.80;99.90;;;;;;5035811;28;20112;-69
2021/06/29 11:46:54;;;;;;;40.05;20.30;;;20.80;99.90;;;;;;5035840;28;20072;-69
2021/06/29 11:49:36;;;;;;;31.55;19.63;;;20.80;99.90;;;;;;5035456;28;20045;-69
2021/06/29 11:52:11;;;;;;;38.08;22.20;;;20.80;99.90;;;;;;5035671;28;20052;-69
2021/06/29 11:54:43;;;;;;;38.97;22.63;;;20.80;99.90;;;;;;5035744;28;20116;-69
2021/06/29 11:57:23;;;;;;;48.13;22.67;;;20.80;99.90;;;;;;5035707;28;20120;-69
2021/06/29 11:59:51;;;;;;;47.58;22.70;;;20.90;99.90;;;;;;5035289;28;20037;-69
2021/06/29 12:02:20;;;;;;;43.38;22.33;;;20.80;99.90;;;;;;5035695;28;20042;-69
2021/06/29 12:05:12;;;;;;;45.20;23.50;;;20.90;99.90;;;;;;5035606;28;20515;-69
2021/06/29 12:07:58;;;;;;;44.05;22.65;;;21.10;99.90;;;;;;5035403;28;20045;-69
2021/06/29 12:10:28;;;;;;;44.85;23.42;;;21.10;99.90;;;;;;5035018;28;20041;-68
2021/06/29 12:13:00;;;;;;;36.72;20.20;;;21.20;99.90;;;;;;5035407;28;20050;-69
2021/06/29 12:15:29;;;;;;;34.50;20.48;;;21.20;99.90;;;;;;5035649;28;20041;-69
2021/06/29 12:18:00;;;;;;;34.78;20.55;;;21.20;99.90;;;;;;5035913;28;20049;-69
2021/06/29 12:20:37;;;;;;;37.72;20.52;;;21.20;99.90;;;;;;5035325;28;20037;-69
2021/06/29 12:23:06;;;;;;;35.45;21.35;;;21.20;99.90;;;;;;5035323;28;20383;-69
2021/06/29 12:25:36;;;;;;;42.15;23.90;;;21.10;99.90;;;;;;5035782;28;20065;-69
2021/06/29 12:28:12;;;;;;;46.15;23.65;;;21.00;99.90;;;;;;5035506;28;20034;-69
2021/06/29 12:30:44;;;;;;;45.10;22.08;;;20.90;99.90;;;;;;5033437;28;20405;-69
2021/06/29 12:33:20;;;;;;;44.60;21.02;;;20.90;99.90;;;;;;5035173;28;20453;-69
2021/06/29 12:36:01;;;;;;;45.88;22.02;;;20.70;99.90;;;;;;5035576;28;20065;-69
2021/06/29 12:38:29;;;;;;;43.42;23.00;;;20.70;99.90;;;;;;5035384;28;20044;-70
2021/06/29 12:40:58;;;;;;;40.70;22.30;;;20.70;99.90;;;;;;5034540;28;20041;-69
2021/06/29 12:43:43;;;;;;;43.97;24.33;;;20.70;99.90;;;;;;5034987;28;20099;-69
2021/06/29 12:46:13;;;;;;;47.85;23.35;;;20.60;99.90;;;;;;5034968;28;20041;-69